sensor_id;sensor_type;location;lat;lon;timestamp;pressure;altitude;pressure_sealevel;temperature;humidity
74103;BME280;62853;46.166;3.640;2024-02-21T00:02:19;102112.78;;;9.78;100.00
74103;BME280;62853;46.166;3.640;2024-02-21T00:04:45;102121.53;;;9.79;100.00
74103;BME280;62853;46.166;3.640;2024-02-21T00:07:10;102125.94;;;9.78;100.00
74103;BME280;62853;46.166;3.640;2024-02-21T00:09:35;102122.38;;;9.79;100.00
74103;BME280;62853;46.166;3.640;2024-02-21T00:12:01;102124.13;;;9.80;100.00
74103;BME280;62853;46.166;3.640;2024-02-21T00:14:26;102121.47;;;9.80;100.00
74103;BME280;62853;46.166;3.640;2024-02-21T00:16:52;102121.44;;;9.82;100.00
74103;BME280;62853;46.166;3.640;2024-02-21T00:19:17;102131.34;;;9.74;100.00
74103;BME280;62853;46.166;3.640;2024-02-21T00:21:42;102126.19;;;9.69;100.00
74103;BME280;62853;46.166;3.640;2024-02-21T00:24:08;102126.16;;;9.71;100.00
74103;BME280;62853;46.166;3.640;2024-02-21T00:26:33;102120.94;;;9.69;100.00
74103;BME280;62853;46.166;3.640;2024-02-21T00:28:58;102125.25;;;9.72;100.00
74103;BME280;62853;46.166;3.640;2024-02-21T00:31:24;102120.81;;;9.74;100.00
74103;BME280;62853;46.166;3.640;2024-02-21T00:33:49;102117.25;;;9.75;100.00
74103;BME280;62853;46.166;3.640;2024-02-21T00:36:15;102110.50;;;9.66;100.00
74103;BME280;62853;46.166;3.640;2024-02-21T00:38:41;102107.06;;;9.64;100.00
74103;BME280;62853;46.166;3.640;2024-02-21T00:41:06;102094.00;;;9.61;100.00
74103;BME280;62853;46.166;3.640;2024-02-21T00:43:31;102089.63;;;9.61;100.00
74103;BME280;62853;46.166;3.640;2024-02-21T00:45:57;102093.88;;;9.65;100.00
74103;BME280;62853;46.166;3.640;2024-02-21T00:48:22;102079.09;;;9.61;100.00
74103;BME280;62853;46.166;3.640;2024-02-21T00:50:47;102069.47;;;9.60;100.00
74103;BME280;62853;46.166;3.640;2024-02-21T00:53:13;102066.00;;;9.60;100.00
74103;BME280;62853;46.166;3.640;2024-02-21T00:55:38;102060.72;;;9.60;100.00
74103;BME280;62853;46.166;3.640;2024-02-21T00:58:05;102051.91;;;9.61;100.00
74103;BME280;62853;46.166;3.640;2024-02-21T01:00:30;102050.75;;;9.69;100.00
74103;BME280;62853;46.166;3.640;2024-02-21T01:02:56;102064.84;;;9.68;100.00
74103;BME280;62853;46.166;3.640;2024-02-21T01:05:21;102075.38;;;9.68;100.00
74103;BME280;62853;46.166;3.640;2024-02-21T01:07:47;102071.81;;;9.69;100.00
74103;BME280;62853;46.166;3.640;2024-02-21T01:10:13;102070.94;;;9.69;100.00
74103;BME280;62853;46.166;3.640;2024-02-21T01:12:38;102065.78;;;9.66;100.00
74103;BME280;62853;46.166;3.640;2024-02-21T01:15:04;102068.38;;;9.67;100.00
74103;BME280;62853;46.166;3.640;2024-02-21T01:17:29;102064.84;;;9.68;100.00
74103;BME280;62853;46.166;3.640;2024-02-21T01:19:55;102054.22;;;9.72;100.00
74103;BME280;62853;46.166;3.640;2024-02-21T01:22:20;102043.59;;;9.75;100.00
74103;BME280;62853;46.166;3.640;2024-02-21T01:24:46;102038.31;;;9.75;100.00
74103;BME280;62853;46.166;3.640;2024-02-21T01:27:11;102027.41;;;9.60;100.00
74103;BME280;62853;46.166;3.640;2024-02-21T01:29:36;102019.72;;;9.53;100.00
74103;BME280;62853;46.166;3.640;2024-02-21T01:32:02;102020.44;;;9.58;100.00
74103;BME280;62853;46.166;3.640;2024-02-21T01:34:27;102031.97;;;9.54;100.00
74103;BME280;62853;46.166;3.640;2024-02-21T01:36:53;102032.78;;;9.56;100.00
74103;BME280;62853;46.166;3.640;2024-02-21T01:39:18;102031.97;;;9.54;100.00
74103;BME280;62853;46.166;3.640;2024-02-21T01:41:43;102030.19;;;9.54;100.00
74103;BME280;62853;46.166;3.640;2024-02-21T01:44:09;102025.88;;;9.53;100.00
74103;BME280;62853;46.166;3.640;2024-02-21T01:46:34;102020.44;;;9.58;100.00
74103;BME280;62853;46.166;3.640;2024-02-21T01:49:00;102023.91;;;9.60;100.00
74103;BME280;62853;46.166;3.640;2024-02-21T01:51:26;102012.41;;;9.62;100.00
74103;BME280;62853;46.166;3.640;2024-02-21T01:53:53;102018.53;;;9.63;100.00
74103;BME280;62853;46.166;3.640;2024-02-21T01:56:20;102016.91;;;9.59;100.00
74103;BME280;62853;46.166;3.640;2024-02-21T01:58:45;102023.16;;;9.56;100.00
74103;BME280;62853;46.166;3.640;2024-02-21T02:01:11;102026.59;;;9.58;100.00
74103;BME280;62853;46.166;3.640;2024-02-21T02:03:37;102033.50;;;9.61;100.00
74103;BME280;62853;46.166;3.640;2024-02-21T02:06:05;102021.31;;;9.58;100.00
74103;BME280;62853;46.166;3.640;2024-02-21T02:08:31;102018.78;;;9.55;100.00
74103;BME280;62853;46.166;3.640;2024-02-21T02:10:57;102013.47;;;9.57;100.00
74103;BME280;62853;46.166;3.640;2024-02-21T02:13:22;102017.97;;;9.53;100.00
74103;BME280;62853;46.166;3.640;2024-02-21T02:15:48;102004.84;;;9.53;100.00
74103;BME280;62853;46.166;3.640;2024-02-21T02:18:15;102009.50;;;9.43;100.00
74103;BME280;62853;46.166;3.640;2024-02-21T02:20:41;102012.09;;;9.45;100.00
74103;BME280;62853;46.166;3.640;2024-02-21T02:23:09;101996.28;;;9.46;100.00
74103;BME280;62853;46.166;3.640;2024-02-21T02:25:39;101999.63;;;9.52;100.00
74103;BME280;62853;46.166;3.640;2024-02-21T02:28:06;101991.72;;;9.52;100.00
74103;BME280;62853;46.166;3.640;2024-02-21T02:30:33;101988.34;;;9.48;100.00
74103;BME280;62853;46.166;3.640;2024-02-21T02:32:59;101979.69;;;9.44;100.00
74103;BME280;62853;46.166;3.640;2024-02-21T02:35:24;101964.75;;;9.45;100.00
74103;BME280;62853;46.166;3.640;2024-02-21T02:37:50;101965.66;;;9.44;100.00
74103;BME280;62853;46.166;3.640;2024-02-21T02:40:16;101965.66;;;9.44;100.00
74103;BME280;62853;46.166;3.640;2024-02-21T02:42:41;101964.06;;;9.40;100.00
74103;BME280;62853;46.166;3.640;2024-02-21T02:45:07;101969.31;;;9.40;100.00
74103;BME280;62853;46.166;3.640;2024-02-21T02:47:32;101965.66;;;9.44;100.00
74103;BME280;62853;46.166;3.640;2024-02-21T02:49:59;101968.25;;;9.45;100.00
74103;BME280;62853;46.166;3.640;2024-02-21T02:52:25;101963.66;;;9.52;100.00
74103;BME280;62853;46.166;3.640;2024-02-21T02:54:50;101950.53;;;9.50;100.00
74103;BME280;62853;46.166;3.640;2024-02-21T02:57:17;101955.81;;;9.50;100.00
74103;BME280;62853;46.166;3.640;2024-02-21T02:59:50;101952.19;;;9.55;100.00
74103;BME280;62853;46.166;3.640;2024-02-21T03:02:16;101945.06;;;9.58;100.00
74103;BME280;62853;46.166;3.640;2024-02-21T03:04:41;101930.13;;;9.59;100.00
74103;BME280;62853;46.166;3.640;2024-02-21T03:07:07;101928.25;;;9.62;100.00
74103;BME280;62853;46.166;3.640;2024-02-21T03:09:32;101933.56;;;9.61;100.00
74103;BME280;62853;46.166;3.640;2024-02-21T03:11:58;101934.47;;;9.60;100.00
74103;BME280;62853;46.166;3.640;2024-02-21T03:14:28;101943.19;;;9.62;100.00
74103;BME280;62853;46.166;3.640;2024-02-21T03:16:53;101937.91;;;9.62;100.00
74103;BME280;62853;46.166;3.640;2024-02-21T03:19:19;101936.28;;;9.58;100.00
74103;BME280;62853;46.166;3.640;2024-02-21T03:21:44;101925.94;;;9.53;100.00
74103;BME280;62853;46.166;3.640;2024-02-21T03:24:09;101923.97;;;9.60;100.00
74103;BME280;62853;46.166;3.640;2024-02-21T03:26:35;101915.09;;;9.62;100.00
74103;BME280;62853;46.166;3.640;2024-02-21T03:29:00;101910.81;;;9.60;100.00
74103;BME280;62853;46.166;3.640;2024-02-21T03:31:26;101913.38;;;9.61;100.00
74103;BME280;62853;46.166;3.640;2024-02-21T03:33:51;101904.56;;;9.62;100.00
74103;BME280;62853;46.166;3.640;2024-02-21T03:36:16;101906.25;;;9.65;100.00
74103;BME280;62853;46.166;3.640;2024-02-21T03:38:42;101905.31;;;9.66;100.00
74103;BME280;62853;46.166;3.640;2024-02-21T03:41:07;101892.13;;;9.67;100.00
74103;BME280;62853;46.166;3.640;2024-02-21T03:43:33;101890.28;;;9.69;100.00
74103;BME280;62853;46.166;3.640;2024-02-21T03:45:58;101883.22;;;9.72;100.00
74103;BME280;62853;46.166;3.640;2024-02-21T03:48:23;101880.00;;;9.63;100.00
74103;BME280;62853;46.166;3.640;2024-02-21T03:50:49;101879.06;;;9.64;100.00
74103;BME280;62853;46.166;3.640;2024-02-21T03:53:14;101874.41;;;9.73;100.00
74103;BME280;62853;46.166;3.640;2024-02-21T03:55:39;101870.94;;;9.72;100.00
74103;BME280;62853;46.166;3.640;2024-02-21T03:58:05;101864.81;;;9.72;100.00
74103;BME280;62853;46.166;3.640;2024-02-21T04:00:30;101864.88;;;9.70;100.00
74103;BME280;62853;46.166;3.640;2024-02-21T04:02:55;101853.53;;;9.68;100.00
74103;BME280;62853;46.166;3.640;2024-02-21T04:05:21;101860.50;;;9.69;100.00
74103;BME280;62853;46.166;3.640;2024-02-21T04:07:46;101859.59;;;9.70;100.00
74103;BME280;62853;46.166;3.640;2024-02-21T04:10:12;101863.19;;;9.67;100.00
74103;BME280;62853;46.166;3.640;2024-02-21T04:12:37;101861.50;;;9.66;100.00
74103;BME280;62853;46.166;3.640;2024-02-21T04:15:04;101875.38;;;9.70;100.00
74103;BME280;62853;46.166;3.640;2024-02-21T04:17:29;101869.25;;;9.69;100.00
74103;BME280;62853;46.166;3.640;2024-02-21T04:20:02;101863.22;;;9.66;100.00
74103;BME280;62853;46.166;3.640;2024-02-21T04:22:30;101872.84;;;9.67;100.00
74103;BME280;62853;46.166;3.640;2024-02-21T04:24:55;101874.50;;;9.69;100.00
74103;BME280;62853;46.166;3.640;2024-02-21T04:27:21;101860.50;;;9.69;100.00
74103;BME280;62853;46.166;3.640;2024-02-21T04:29:46;101860.69;;;9.63;100.00
74103;BME280;62853;46.166;3.640;2024-02-21T04:32:11;101878.38;;;9.59;100.00
74103;BME280;62853;46.166;3.640;2024-02-21T04:34:37;101865.22;;;9.59;100.00
74103;BME280;62853;46.166;3.640;2024-02-21T04:37:02;101853.59;;;9.66;100.00
74103;BME280;62853;46.166;3.640;2024-02-21T04:39:28;101865.00;;;9.65;100.00
74103;BME280;62853;46.166;3.640;2024-02-21T04:41:53;101865.91;;;9.64;100.00
74103;BME280;62853;46.166;3.640;2024-02-21T04:44:18;101867.69;;;9.64;100.00
74103;BME280;62853;46.166;3.640;2024-02-21T04:46:47;101861.59;;;9.63;100.00
74103;BME280;62853;46.166;3.640;2024-02-21T04:49:12;101861.63;;;9.62;100.00
74103;BME280;62853;46.166;3.640;2024-02-21T04:51:40;101860.78;;;9.61;100.00
74103;BME280;62853;46.166;3.640;2024-02-21T04:54:05;101859.94;;;9.59;100.00
74103;BME280;62853;46.166;3.640;2024-02-21T04:56:31;101855.72;;;9.55;100.00
74103;BME280;62853;46.166;3.640;2024-02-21T04:58:56;101852.19;;;9.56;100.00
74103;BME280;62853;46.166;3.640;2024-02-21T05:01:21;101850.38;;;9.58;100.00
74103;BME280;62853;46.166;3.640;2024-02-21T05:03:47;101844.34;;;9.55;100.00
74103;BME280;62853;46.166;3.640;2024-02-21T05:06:12;101841.88;;;9.50;100.00
74103;BME280;62853;46.166;3.640;2024-02-21T05:08:37;101834.00;;;9.50;100.00
74103;BME280;62853;46.166;3.640;2024-02-21T05:11:03;101836.28;;;9.59;100.00
74103;BME280;62853;46.166;3.640;2024-02-21T05:13:28;101838.00;;;9.60;100.00
74103;BME280;62853;46.166;3.640;2024-02-21T05:15:54;101838.00;;;9.60;100.00
74103;BME280;62853;46.166;3.640;2024-02-21T05:18:19;101831.03;;;9.59;100.00
74103;BME280;62853;46.166;3.640;2024-02-21T05:20:45;101826.66;;;9.60;100.00
74103;BME280;62853;46.166;3.640;2024-02-21T05:23:11;101827.53;;;9.59;100.00
74103;BME280;62853;46.166;3.640;2024-02-21T05:25:37;101823.09;;;9.61;100.00
74103;BME280;62853;46.166;3.640;2024-02-21T05:28:03;101815.28;;;9.58;100.00
74103;BME280;62853;46.166;3.640;2024-02-21T05:30:28;101817.03;;;9.59;100.00
74103;BME280;62853;46.166;3.640;2024-02-21T05:32:54;101804.72;;;9.59;100.00
74103;BME280;62853;46.166;3.640;2024-02-21T05:35:25;101802.09;;;9.59;100.00
74103;BME280;62853;46.166;3.640;2024-02-21T05:37:50;101799.47;;;9.59;100.00
74103;BME280;62853;46.166;3.640;2024-02-21T05:40:17;101804.56;;;9.64;100.00
74103;BME280;62853;46.166;3.640;2024-02-21T05:42:43;101791.41;;;9.64;100.00
74103;BME280;62853;46.166;3.640;2024-02-21T05:45:08;101797.13;;;9.52;100.00
74103;BME280;62853;46.166;3.640;2024-02-21T05:47:34;101788.53;;;9.46;100.00
74103;BME280;62853;46.166;3.640;2024-02-21T05:49:59;101788.94;;;9.59;100.00
74103;BME280;62853;46.166;3.640;2024-02-21T05:52:25;101790.78;;;9.57;100.00
74103;BME280;62853;46.166;3.640;2024-02-21T05:54:50;101781.97;;;9.58;100.00
74103;BME280;62853;46.166;3.640;2024-02-21T05:57:17;101780.16;;;9.60;100.00
74103;BME280;62853;46.166;3.640;2024-02-21T05:59:43;101782.84;;;9.59;100.00
74103;BME280;62853;46.166;3.640;2024-02-21T06:02:09;101774.94;;;9.59;100.00
74103;BME280;62853;46.166;3.640;2024-02-21T06:04:34;101779.41;;;9.57;100.00
74103;BME280;62853;46.166;3.640;2024-02-21T06:07:01;101775.78;;;9.59;100.00
74103;BME280;62853;46.166;3.640;2024-02-21T06:09:27;101764.38;;;9.60;100.00
74103;BME280;62853;46.166;3.640;2024-02-21T06:11:52;101759.97;;;9.61;100.00
74103;BME280;62853;46.166;3.640;2024-02-21T06:14:18;101748.59;;;9.60;100.00
74103;BME280;62853;46.166;3.640;2024-02-21T06:16:43;101736.38;;;9.58;100.00
74103;BME280;62853;46.166;3.640;2024-02-21T06:19:09;101736.47;;;9.56;100.00
74103;BME280;62853;46.166;3.640;2024-02-21T06:21:34;101737.38;;;9.55;100.00
74103;BME280;62853;46.166;3.640;2024-02-21T06:24:00;101735.53;;;9.57;100.00
74103;BME280;62853;46.166;3.640;2024-02-21T06:26:25;101737.28;;;9.58;100.00
74103;BME280;62853;46.166;3.640;2024-02-21T06:28:51;101733.72;;;9.59;100.00
74103;BME280;62853;46.166;3.640;2024-02-21T06:31:16;101741.59;;;9.59;100.00
74103;BME280;62853;46.166;3.640;2024-02-21T06:33:42;101744.47;;;9.53;100.00
74103;BME280;62853;46.166;3.640;2024-02-21T06:36:08;101734.00;;;9.52;100.00
74103;BME280;62853;46.166;3.640;2024-02-21T06:38:33;101742.44;;;9.61;100.00
74103;BME280;62853;46.166;3.640;2024-02-21T06:40:59;101746.75;;;9.62;100.00
74103;BME280;62853;46.166;3.640;2024-02-21T06:43:26;101745.81;;;9.65;100.00
74103;BME280;62853;46.166;3.640;2024-02-21T06:45:51;101746.66;;;9.65;100.00
74103;BME280;62853;46.166;3.640;2024-02-21T06:48:17;101740.47;;;9.66;100.00
74103;BME280;62853;46.166;3.640;2024-02-21T06:50:44;101744.88;;;9.66;100.00
74103;BME280;62853;46.166;3.640;2024-02-21T06:53:09;101745.69;;;9.68;100.00
74103;BME280;62853;46.166;3.640;2024-02-21T06:55:35;101747.38;;;9.69;100.00
74103;BME280;62853;46.166;3.640;2024-02-21T06:58:00;101752.69;;;9.67;100.00
74103;BME280;62853;46.166;3.640;2024-02-21T07:00:28;101748.69;;;9.57;100.00
74103;BME280;62853;46.166;3.640;2024-02-21T07:02:53;101744.47;;;9.53;100.00
74103;BME280;62853;46.166;3.640;2024-02-21T07:05:19;101745.91;;;9.62;100.00
74103;BME280;62853;46.166;3.640;2024-02-21T07:07:44;101741.50;;;9.62;100.00
74103;BME280;62853;46.166;3.640;2024-02-21T07:10:09;101732.66;;;9.65;100.00
74103;BME280;62853;46.166;3.640;2024-02-21T07:12:36;101727.44;;;9.63;100.00
74103;BME280;62853;46.166;3.640;2024-02-21T07:15:04;101733.72;;;9.59;100.00
74103;BME280;62853;46.166;3.640;2024-02-21T07:17:30;101729.31;;;9.60;100.00
74103;BME280;62853;46.166;3.640;2024-02-21T07:19:55;101723.31;;;9.56;100.00
74103;BME280;62853;46.166;3.640;2024-02-21T07:22:22;101724.28;;;9.54;100.00
74103;BME280;62853;46.166;3.640;2024-02-21T07:24:47;101716.66;;;9.46;100.00
74103;BME280;62853;46.166;3.640;2024-02-21T07:27:15;101724.78;;;9.40;100.00
74103;BME280;62853;46.166;3.640;2024-02-21T07:29:40;101714.16;;;9.43;100.00
74103;BME280;62853;46.166;3.640;2024-02-21T07:32:06;101722.56;;;9.53;100.00
74103;BME280;62853;46.166;3.640;2024-02-21T07:34:31;101707.72;;;9.52;100.00
74103;BME280;62853;46.166;3.640;2024-02-21T07:36:57;101705.97;;;9.50;100.00
74103;BME280;62853;46.166;3.640;2024-02-21T07:39:22;101707.75;;;9.50;100.00
74103;BME280;62853;46.166;3.640;2024-02-21T07:41:48;101704.19;;;9.51;100.00
74103;BME280;62853;46.166;3.640;2024-02-21T07:44:15;101693.81;;;9.48;100.00
74103;BME280;62853;46.166;3.640;2024-02-21T07:46:40;101699.06;;;9.48;100.00
74103;BME280;62853;46.166;3.640;2024-02-21T07:49:05;101683.41;;;9.45;100.00
74103;BME280;62853;46.166;3.640;2024-02-21T07:51:31;101682.47;;;9.46;100.00
74103;BME280;62853;46.166;3.640;2024-02-21T07:53:56;101668.63;;;9.41;100.00
74103;BME280;62853;46.166;3.640;2024-02-21T07:56:22;101667.72;;;9.42;100.00
74103;BME280;62853;46.166;3.640;2024-02-21T07:58:47;101659.06;;;9.40;100.00
74103;BME280;62853;46.166;3.640;2024-02-21T08:01:18;101653.75;;;9.41;100.00
74103;BME280;62853;46.166;3.640;2024-02-21T08:03:44;101659.84;;;9.42;100.00
74103;BME280;62853;46.166;3.640;2024-02-21T08:06:12;101664.22;;;9.43;100.00
74103;BME280;62853;46.166;3.640;2024-02-21T08:08:37;101661.56;;;9.43;100.00
74103;BME280;62853;46.166;3.640;2024-02-21T08:11:03;101656.38;;;9.41;100.00
74103;BME280;62853;46.166;3.640;2024-02-21T08:13:28;101653.00;;;9.38;100.00
74103;BME280;62853;46.166;3.640;2024-02-21T08:15:54;101649.31;;;9.42;100.00
74103;BME280;62853;46.166;3.640;2024-02-21T08:18:19;101639.75;;;9.39;100.00
74103;BME280;62853;46.166;3.640;2024-02-21T08:20:45;101643.34;;;9.38;100.00
74103;BME280;62853;46.166;3.640;2024-02-21T08:23:10;101630.25;;;9.37;100.00
74103;BME280;62853;46.166;3.640;2024-02-21T08:25:35;101628.50;;;9.36;100.00
74103;BME280;62853;46.166;3.640;2024-02-21T08:28:01;101631.09;;;9.37;100.00
74103;BME280;62853;46.166;3.640;2024-02-21T08:30:27;101624.00;;;9.39;100.00
74103;BME280;62853;46.166;3.640;2024-02-21T08:32:53;101615.31;;;9.37;100.00
74103;BME280;62853;46.166;3.640;2024-02-21T08:35:19;101617.94;;;9.37;100.00
74103;BME280;62853;46.166;3.640;2024-02-21T08:37:47;101608.41;;;9.35;100.00
74103;BME280;62853;46.166;3.640;2024-02-21T08:40:13;101610.09;;;9.36;100.00
74103;BME280;62853;46.166;3.640;2024-02-21T08:42:39;101607.63;;;9.33;100.00
74103;BME280;62853;46.166;3.640;2024-02-21T08:45:05;101602.28;;;9.34;100.00
74103;BME280;62853;46.166;3.640;2024-02-21T08:47:30;101608.94;;;9.44;100.00
74103;BME280;62853;46.166;3.640;2024-02-21T08:49:56;101598.31;;;9.46;100.00
74103;BME280;62853;46.166;3.640;2024-02-21T08:52:21;101588.75;;;9.45;100.00
74103;BME280;62853;46.166;3.640;2024-02-21T08:54:47;101581.75;;;9.44;100.00
74103;BME280;62853;46.166;3.640;2024-02-21T08:57:12;101578.28;;;9.43;100.00
74103;BME280;62853;46.166;3.640;2024-02-21T08:59:39;101573.09;;;9.42;100.00
74103;BME280;62853;46.166;3.640;2024-02-21T09:02:05;101573.94;;;9.42;100.00
74103;BME280;62853;46.166;3.640;2024-02-21T09:04:32;101574.81;;;9.43;100.00
74103;BME280;62853;46.166;3.640;2024-02-21T09:06:57;101569.50;;;9.44;100.00
74103;BME280;62853;46.166;3.640;2024-02-21T09:09:23;101558.97;;;9.44;100.00
74103;BME280;62853;46.166;3.640;2024-02-21T09:11:48;101570.22;;;9.48;100.00
74103;BME280;62853;46.166;3.640;2024-02-21T09:14:13;101561.78;;;9.40;100.00
74103;BME280;62853;46.166;3.640;2024-02-21T09:16:39;101560.97;;;9.38;100.00
74103;BME280;62853;46.166;3.640;2024-02-21T09:19:04;101560.97;;;9.38;100.00
74103;BME280;62853;46.166;3.640;2024-02-21T09:21:30;101558.03;;;9.45;100.00
74103;BME280;62853;46.166;3.640;2024-02-21T09:23:55;101549.97;;;9.50;100.00
74103;BME280;62853;46.166;3.640;2024-02-21T09:26:20;101554.31;;;9.51;100.00
74103;BME280;62853;46.166;3.640;2024-02-21T09:28:46;101548.13;;;9.52;100.00
74103;BME280;62853;46.166;3.640;2024-02-21T09:31:11;101555.91;;;9.55;100.00
74103;BME280;62853;46.166;3.640;2024-02-21T09:33:37;101550.66;;;9.55;100.00
74103;BME280;62853;46.166;3.640;2024-02-21T09:36:02;101548.03;;;9.55;100.00
74103;BME280;62853;46.166;3.640;2024-02-21T09:38:30;101539.34;;;9.53;100.00
74103;BME280;62853;46.166;3.640;2024-02-21T09:40:59;101538.66;;;9.48;100.00
74103;BME280;62853;46.166;3.640;2024-02-21T09:43:29;101533.47;;;9.46;100.00
74103;BME280;62853;46.166;3.640;2024-02-21T09:45:55;101509.47;;;9.54;100.00
74103;BME280;62853;46.166;3.640;2024-02-21T09:48:42;101504.28;;;9.53;100.00
74103;BME280;62853;46.166;3.640;2024-02-21T09:51:14;101502.53;;;9.53;100.00
74103;BME280;62853;46.166;3.640;2024-02-21T09:53:41;101487.59;;;9.54;100.00
74103;BME280;62853;46.166;3.640;2024-02-21T09:56:10;101482.28;;;9.55;100.00
74103;BME280;62853;46.166;3.640;2024-02-21T09:58:36;101471.75;;;9.55;100.00
74103;BME280;62853;46.166;3.640;2024-02-21T10:01:02;101466.56;;;9.54;100.00
74103;BME280;62853;46.166;3.640;2024-02-21T10:03:29;101461.19;;;9.57;100.00
74103;BME280;62853;46.166;3.640;2024-02-21T10:05:54;101457.63;;;9.58;100.00
74103;BME280;62853;46.166;3.640;2024-02-21T10:08:20;101450.00;;;9.52;100.00
74103;BME280;62853;46.166;3.640;2024-02-21T10:10:45;101448.34;;;9.49;100.00
74103;BME280;62853;46.166;3.640;2024-02-21T10:13:25;101447.97;;;9.58;100.00
74103;BME280;62853;46.166;3.640;2024-02-21T10:16:05;101442.59;;;9.61;100.00
74103;BME280;62853;46.166;3.640;2024-02-21T10:18:31;101432.88;;;9.63;100.00
74103;BME280;62853;46.166;3.640;2024-02-21T10:23:26;101417.88;;;9.65;100.00
74103;BME280;62853;46.166;3.640;2024-02-21T10:25:51;101401.19;;;9.66;100.00
74103;BME280;62853;46.166;3.640;2024-02-21T10:28:16;101399.34;;;9.68;100.00
74103;BME280;62853;46.166;3.640;2024-02-21T10:30:52;101386.97;;;9.71;100.00
74103;BME280;62853;46.166;3.640;2024-02-21T10:33:17;101376.63;;;9.66;100.00
74103;BME280;62853;46.166;3.640;2024-02-21T10:35:46;101359.09;;;9.66;100.00
74103;BME280;62853;46.166;3.640;2024-02-21T10:38:12;101363.16;;;9.74;100.00
74103;BME280;62853;46.166;3.640;2024-02-21T10:40:38;101349.94;;;9.75;100.00
74103;BME280;62853;46.166;3.640;2024-02-21T10:43:05;101330.59;;;9.76;100.00
74103;BME280;62853;46.166;3.640;2024-02-21T10:45:36;101320.00;;;9.78;100.00
74103;BME280;62853;46.166;3.640;2024-02-21T10:48:08;101316.47;;;9.79;100.00
74103;BME280;62853;46.166;3.640;2024-02-21T10:50:57;101322.50;;;9.81;100.00
74103;BME280;62853;46.166;3.640;2024-02-21T10:53:38;101312.75;;;9.83;100.00
74103;BME280;62853;46.166;3.640;2024-02-21T10:56:32;101314.41;;;9.85;100.00
74103;BME280;62853;46.166;3.640;2024-02-21T10:59:03;101323.44;;;9.80;100.00
74103;BME280;62853;46.166;3.640;2024-02-21T11:01:29;101316.41;;;9.80;100.00
74103;BME280;62853;46.166;3.640;2024-02-21T11:04:11;101328.28;;;9.89;100.00
74103;BME280;62853;46.166;3.640;2024-02-21T11:06:40;101321.31;;;9.88;100.00
74103;BME280;62853;46.166;3.640;2024-02-21T11:09:07;101320.47;;;9.87;100.00
74103;BME280;62853;46.166;3.640;2024-02-21T11:11:41;101320.41;;;9.89;100.00
74103;BME280;62853;46.166;3.640;2024-02-21T11:14:08;101323.81;;;9.91;100.00
74103;BME280;62853;46.166;3.640;2024-02-21T11:16:38;101304.53;;;9.91;100.00
74103;BME280;62853;46.166;3.640;2024-02-21T11:19:25;101300.06;;;9.93;100.00
74103;BME280;62853;46.166;3.640;2024-02-21T11:21:52;101286.00;;;9.94;100.00
74103;BME280;62853;46.166;3.640;2024-02-21T11:24:28;101292.88;;;9.96;100.00
74103;BME280;62853;46.166;3.640;2024-02-21T11:26:54;101276.50;;;9.90;100.00
74103;BME280;62853;46.166;3.640;2024-02-21T11:29:24;101265.16;;;9.89;100.00
74103;BME280;62853;46.166;3.640;2024-02-21T11:31:50;101259.56;;;9.97;100.00
74103;BME280;62853;46.166;3.640;2024-02-21T11:34:19;101250.66;;;9.99;100.00
74103;BME280;62853;46.166;3.640;2024-02-21T11:39:19;101247.75;;;10.05;100.00
74103;BME280;62853;46.166;3.640;2024-02-21T11:41:46;101241.47;;;10.08;100.00
74103;BME280;62853;46.166;3.640;2024-02-21T11:44:12;101241.41;;;10.10;100.00
74103;BME280;62853;46.166;3.640;2024-02-21T11:46:38;101241.31;;;10.11;100.00
74103;BME280;62853;46.166;3.640;2024-02-21T11:49:04;101231.66;;;10.12;100.00
74103;BME280;62853;46.166;3.640;2024-02-21T11:51:29;101232.72;;;10.08;100.00
74103;BME280;62853;46.166;3.640;2024-02-21T11:53:54;101212.59;;;10.06;100.00
74103;BME280;62853;46.166;3.640;2024-02-21T11:56:20;101187.72;;;10.14;100.00
74103;BME280;62853;46.166;3.640;2024-02-21T11:58:49;101193.81;;;10.14;100.00
74103;BME280;62853;46.166;3.640;2024-02-21T12:01:14;101187.53;;;10.17;100.00
74103;BME280;62853;46.166;3.640;2024-02-21T12:03:41;101162.94;;;10.18;100.00
74103;BME280;62853;46.166;3.640;2024-02-21T12:06:07;101171.66;;;10.18;100.00
74103;BME280;62853;46.166;3.640;2024-02-21T12:08:44;101166.25;;;10.21;100.00
74103;BME280;62853;46.166;3.640;2024-02-21T12:11:21;101166.19;;;10.23;100.00
74103;BME280;62853;46.166;3.640;2024-02-21T12:13:47;101150.31;;;10.24;100.00
74103;BME280;62853;46.166;3.640;2024-02-21T12:16:15;101145.00;;;10.26;100.00
74103;BME280;62853;46.166;3.640;2024-02-21T12:18:43;101134.38;;;10.28;100.00
74103;BME280;62853;46.166;3.640;2024-02-21T12:21:09;101122.22;;;10.25;100.00
74103;BME280;62853;46.166;3.640;2024-02-21T12:23:38;101108.22;;;10.24;100.00
74103;BME280;62853;46.166;3.640;2024-02-21T12:26:03;101110.50;;;10.32;100.00
74103;BME280;62853;46.166;3.640;2024-02-21T12:28:30;101112.28;;;10.32;100.00
74103;BME280;62853;46.166;3.640;2024-02-21T12:30:55;101106.94;;;10.33;100.00
74103;BME280;62853;46.166;3.640;2024-02-21T12:33:21;101101.66;;;10.33;100.00
74103;BME280;62853;46.166;3.640;2024-02-21T12:35:47;101097.34;;;10.32;100.00
74103;BME280;62853;46.166;3.640;2024-02-21T12:38:14;101085.88;;;10.33;100.00
74103;BME280;62853;46.166;3.640;2024-02-21T12:40:39;101068.38;;;10.32;100.00
74103;BME280;62853;46.166;3.640;2024-02-21T12:43:05;101063.13;;;10.32;100.00
74103;BME280;62853;46.166;3.640;2024-02-21T12:45:30;101067.44;;;10.33;100.00
74103;BME280;62853;46.166;3.640;2024-02-21T12:47:56;101050.81;;;10.33;100.00
74103;BME280;62853;46.166;3.640;2024-02-21T12:50:21;101052.59;;;10.32;100.00